Time;durP1;ratioP1;P1;durP2;ratioP2;P2;SDS_P1;SDS_P2;PMS_P1;PMS_P2;Temp;Humidity;BMP_temperature;BMP_pressure;BME280_temperature;BME280_humidity;BME280_pressure;Samples;Min_cycle;Max_cycle;Signal;HPM_P1;HPM_P2
2023/09/08 00:00:56;;;;;;;11.63;7.90;;;20.00;99.90;;;;;;4983338;28;20651;-53
2023/09/08 00:03:22;;;;;;;14.18;8.35;;;20.00;99.90;;;;;;4983386;28;20038;-53
2023/09/08 00:05:48;;;;;;;11.25;7.60;;;19.90;99.90;;;;;;4983312;28;20064;-50
2023/09/08 00:08:13;;;;;;;10.30;8.38;;;19.90;99.90;;;;;;4983030;28;20050;-54
2023/09/08 00:10:39;;;;;;;13.77;8.10;;;19.90;99.90;;;;;;4986217;28;20045;-53
2023/09/08 00:13:04;;;;;;;9.93;7.93;;;19.90;99.90;;;;;;4965777;28;1063732;-54
2023/09/08 00:15:32;;;;;;;10.32;8.15;;;19.80;99.90;;;;;;5002957;28;20543;-53
2023/09/08 00:17:59;;;;;;;9.20;7.80;;;19.80;99.90;;;;;;5003614;28;20042;-54
2023/09/08 00:20:24;;;;;;;8.82;7.93;;;19.80;99.90;;;;;;5003158;28;20057;-54
2023/09/08 00:22:50;;;;;;;9.52;7.60;;;19.80;99.90;;;;;;5003094;28;20412;-53
2023/09/08 00:25:16;;;;;;;10.98;7.68;;;19.70;99.90;;;;;;5002186;28;20045;-54
2023/09/08 00:27:41;;;;;;;10.23;8.35;;;19.70;99.90;;;;;;5003921;28;20081;-54
2023/09/08 00:30:07;;;;;;;10.48;7.75;;;19.70;99.90;;;;;;5006291;28;20390;-54
2023/09/08 00:32:33;;;;;;;10.00;8.32;;;19.70;99.90;;;;;;5007419;28;20133;-53
2023/09/08 00:34:58;;;;;;;8.68;7.78;;;19.60;99.90;;;;;;5007171;28;20124;-55
2023/09/08 00:37:24;;;;;;;16.52;8.82;;;19.60;99.90;;;;;;5005873;28;20045;-51
2023/09/08 00:39:50;;;;;;;9.20;8.20;;;19.60;99.90;;;;;;5006607;28;20046;-52
2023/09/08 00:42:15;;;;;;;9.20;8.10;;;19.50;99.90;;;;;;5006864;28;20042;-54
2023/09/08 00:44:41;;;;;;;9.10;8.20;;;19.50;99.90;;;;;;5007024;28;20045;-53
2023/09/08 00:47:07;;;;;;;12.68;8.00;;;19.50;99.90;;;;;;5006357;28;20168;-53
2023/09/08 00:49:32;;;;;;;12.43;7.90;;;19.40;99.90;;;;;;5007062;28;20042;-53
2023/09/08 00:51:58;;;;;;;10.73;7.93;;;19.40;99.90;;;;;;5007477;28;20046;-54
2023/09/08 00:54:24;;;;;;;10.25;7.82;;;19.30;99.90;;;;;;5007486;28;20085;-53
2023/09/08 00:56:56;;;;;;;9.82;8.10;;;19.30;99.90;;;;;;4979174;28;20137;-53
2023/09/08 00:59:22;;;;;;;9.38;7.70;;;19.30;99.90;;;;;;4968168;28;20086;-53
2023/09/08 01:01:48;;;;;;;10.07;8.45;;;19.20;99.90;;;;;;4967794;28;20078;-53
2023/09/08 01:04:13;;;;;;;10.45;8.05;;;19.20;99.90;;;;;;4967281;28;20042;-53
2023/09/08 01:06:39;;;;;;;10.65;7.80;;;19.10;99.90;;;;;;4967732;28;20494;-54
2023/09/08 01:09:05;;;;;;;11.00;8.10;;;19.10;99.90;;;;;;4967815;28;20724;-54
2023/09/08 01:11:32;;;;;;;9.52;8.55;;;19.10;99.90;;;;;;4966404;28;20367;-54
2023/09/08 01:13:57;;;;;;;8.63;7.60;;;19.00;99.90;;;;;;4967537;28;20051;-54
2023/09/08 01:16:23;;;;;;;10.55;8.20;;;19.00;99.90;;;;;;4967844;28;20049;-54
2023/09/08 01:18:49;;;;;;;9.23;8.23;;;19.00;99.90;;;;;;4978148;28;20124;-51
2023/09/08 01:21:15;;;;;;;10.65;7.95;;;18.90;99.90;;;;;;4992132;28;20180;-54
2023/09/08 01:24:10;;;;;;;9.25;8.30;;;18.90;99.90;;;;;;5006532;28;20440;-54
2023/09/08 01:26:40;;;;;;;11.52;8.35;;;18.90;99.90;;;;;;5005043;28;20088;-53
2023/09/08 01:29:07;;;;;;;12.50;8.90;;;18.90;99.90;;;;;;5006518;28;20067;-54
2023/09/08 01:31:33;;;;;;;10.43;8.75;;;18.90;99.90;;;;;;5006639;28;20133;-54
2023/09/08 01:34:01;;;;;;;11.23;8.98;;;18.90;99.90;;;;;;5005319;28;20152;-54
2023/09/08 01:36:26;;;;;;;9.88;8.10;;;18.80;99.90;;;;;;5006984;28;20042;-54
2023/09/08 01:38:52;;;;;;;10.55;8.43;;;18.80;99.90;;;;;;5006251;28;20049;-54
2023/09/08 01:41:18;;;;;;;11.55;9.15;;;18.70;99.90;;;;;;5004819;28;20522;-55
2023/09/08 01:43:43;;;;;;;11.32;8.52;;;18.70;99.90;;;;;;5005238;28;20038;-54
2023/09/08 01:46:09;;;;;;;12.38;9.40;;;18.70;99.90;;;;;;5005529;28;20134;-54
2023/09/08 01:48:34;;;;;;;10.18;8.70;;;18.70;99.90;;;;;;4986617;28;20042;-55
2023/09/08 01:51:00;;;;;;;12.77;8.85;;;18.60;99.90;;;;;;4985867;28;20628;-54
2023/09/08 01:53:25;;;;;;;12.00;8.50;;;18.70;99.90;;;;;;4984804;28;20587;-54
2023/09/08 01:55:51;;;;;;;11.93;8.98;;;18.60;99.90;;;;;;4979908;28;20092;-55
2023/09/08 01:58:17;;;;;;;11.23;8.70;;;18.60;99.90;;;;;;4972798;28;20132;-54
2023/09/08 02:00:42;;;;;;;10.43;9.13;;;18.50;99.90;;;;;;4965973;28;20091;-54
2023/09/08 02:03:08;;;;;;;11.25;9.20;;;18.50;99.90;;;;;;4967486;28;20131;-54
2023/09/08 02:05:38;;;;;;;10.23;8.90;;;18.40;99.90;;;;;;4966196;28;20038;-54
2023/09/08 02:08:04;;;;;;;13.80;8.70;;;18.40;99.90;;;;;;4966265;28;20062;-54
2023/09/08 02:10:30;;;;;;;14.07;9.05;;;18.40;99.90;;;;;;4966173;28;20039;-53
2023/09/08 02:12:56;;;;;;;12.02;8.82;;;18.30;99.90;;;;;;4966548;28;20069;-54
2023/09/08 02:15:21;;;;;;;10.55;9.07;;;18.30;99.90;;;;;;4966839;28;20118;-52
2023/09/08 02:17:52;;;;;;;13.00;9.75;;;18.30;99.90;;;;;;4965810;28;20043;-54
2023/09/08 02:20:18;;;;;;;11.48;9.65;;;18.20;99.90;;;;;;4965999;28;20122;-54
2023/09/08 02:22:43;;;;;;;13.60;9.15;;;18.20;99.90;;;;;;4966623;28;20114;-53
2023/09/08 02:25:09;;;;;;;11.77;9.45;;;18.10;99.90;;;;;;4964657;28;20155;-54
2023/09/08 02:27:34;;;;;;;12.02;9.90;;;18.10;99.90;;;;;;4966086;28;20134;-52
2023/09/08 02:30:00;;;;;;;11.35;9.60;;;18.20;99.90;;;;;;4966957;28;20347;-52
2023/09/08 02:32:26;;;;;;;15.45;10.02;;;18.00;99.90;;;;;;4949139;28;20471;-51
2023/09/08 02:34:52;;;;;;;12.00;9.98;;;18.00;99.90;;;;;;4965015;28;20035;-53
2023/09/08 02:37:19;;;;;;;13.23;9.73;;;18.00;99.90;;;;;;4966287;28;20054;-53
2023/09/08 02:39:44;;;;;;;13.00;10.10;;;18.00;99.90;;;;;;4965332;28;20074;-54
2023/09/08 02:42:10;;;;;;;12.02;9.75;;;18.00;99.90;;;;;;4965704;28;20520;-54
2023/09/08 02:44:35;;;;;;;11.30;10.07;;;17.90;99.90;;;;;;4965886;28;20050;-53
2023/09/08 02:47:01;;;;;;;10.93;9.77;;;17.80;99.90;;;;;;4980876;28;20043;-53
2023/09/08 02:49:27;;;;;;;13.10;9.50;;;17.90;99.90;;;;;;4965801;28;20038;-53
2023/09/08 02:51:52;;;;;;;12.63;10.15;;;17.90;99.90;;;;;;4964485;28;20101;-53
2023/09/08 02:54:18;;;;;;;10.35;9.25;;;17.80;99.90;;;;;;4966017;28;20525;-55
2023/09/08 02:56:43;;;;;;;12.00;10.18;;;17.80;99.90;;;;;;4976741;28;20097;-54
2023/09/08 02:59:09;;;;;;;13.10;10.73;;;17.80;99.90;;;;;;4965266;28;20034;-52
2023/09/08 03:01:34;;;;;;;11.63;10.35;;;17.70;99.90;;;;;;4965730;28;20496;-54
2023/09/08 03:04:00;;;;;;;10.90;9.80;;;17.60;99.90;;;;;;4965729;28;20050;-51
2023/09/08 03:06:26;;;;;;;11.05;9.85;;;17.50;99.90;;;;;;4965422;28;20137;-51
2023/09/08 03:08:52;;;;;;;11.25;9.82;;;17.50;99.90;;;;;;4964581;28;20122;-53
2023/09/08 03:11:17;;;;;;;10.60;9.50;;;17.50;99.90;;;;;;4964487;28;20094;-53
2023/09/08 03:13:43;;;;;;;11.75;10.55;;;17.50;99.90;;;;;;4965541;28;20204;-53
2023/09/08 03:16:10;;;;;;;13.48;10.65;;;17.50;99.90;;;;;;4966135;28;20466;-53
2023/09/08 03:18:36;;;;;;;11.52;10.43;;;17.40;99.90;;;;;;4965139;28;20069;-53
2023/09/08 03:21:08;;;;;;;14.70;10.35;;;17.40;99.90;;;;;;4966031;28;20074;-53
2023/09/08 03:23:40;;;;;;;11.18;9.98;;;17.40;99.90;;;;;;4965875;28;20377;-52
2023/09/08 03:26:07;;;;;;;12.52;10.30;;;17.30;99.90;;;;;;4964562;28;20057;-51
2023/09/08 03:28:34;;;;;;;13.90;10.13;;;17.30;99.90;;;;;;4966099;28;20415;-53
2023/09/08 03:31:00;;;;;;;10.73;9.63;;;17.30;99.90;;;;;;4965398;28;20034;-52
2023/09/08 03:33:26;;;;;;;11.85;10.27;;;17.20;99.90;;;;;;4964847;28;20043;-52
2023/09/08 03:35:52;;;;;;;12.57;10.80;;;17.20;99.90;;;;;;4965114;28;20097;-52
2023/09/08 03:38:17;;;;;;;15.88;11.35;;;17.10;99.90;;;;;;4965315;28;20051;-53
2023/09/08 03:40:43;;;;;;;14.02;11.23;;;17.10;99.90;;;;;;4964121;28;20223;-53
2023/09/08 03:43:09;;;;;;;12.57;10.95;;;17.10;99.90;;;;;;4964757;28;20059;-53
2023/09/08 03:45:34;;;;;;;11.57;10.38;;;17.00;99.90;;;;;;4965147;28;20046;-51
2023/09/08 03:48:00;;;;;;;11.40;10.20;;;17.00;99.90;;;;;;4964621;28;20672;-52
2023/09/08 03:50:26;;;;;;;12.02;10.68;;;17.00;99.90;;;;;;4964044;28;20122;-53
2023/09/08 03:52:53;;;;;;;13.75;11.13;;;17.00;99.90;;;;;;4964428;28;20053;-52
2023/09/08 03:55:19;;;;;;;11.88;10.57;;;17.00;99.90;;;;;;4966179;28;20069;-52
2023/09/08 03:57:45;;;;;;;12.57;10.70;;;17.00;99.90;;;;;;4973004;28;20045;-52
2023/09/08 04:00:11;;;;;;;13.98;10.93;;;17.00;99.90;;;;;;4964133;28;20038;-50
2023/09/08 04:02:37;;;;;;;12.50;10.63;;;17.00;99.90;;;;;;4964940;28;20209;-53
2023/09/08 04:05:03;;;;;;;13.63;11.20;;;17.00;99.90;;;;;;4964634;28;20363;-54
2023/09/08 04:07:28;;;;;;;13.18;11.82;;;17.00;99.90;;;;;;4964145;28;20104;-52
2023/09/08 04:09:54;;;;;;;14.68;11.75;;;17.00;99.90;;;;;;4963489;28;20650;-52
2023/09/08 04:12:20;;;;;;;13.73;12.20;;;17.00;99.90;;;;;;4964866;28;20066;-50
2023/09/08 04:14:45;;;;;;;12.68;11.38;;;16.80;99.90;;;;;;4963891;28;20417;-50
2023/09/08 04:17:11;;;;;;;13.40;12.00;;;16.90;99.90;;;;;;4963866;28;20057;-51
2023/09/08 04:19:36;;;;;;;13.10;11.05;;;16.90;99.90;;;;;;4964937;28;20039;-50
2023/09/08 04:22:02;;;;;;;15.15;11.15;;;16.80;99.90;;;;;;4964059;28;20828;-51
2023/09/08 04:24:28;;;;;;;13.20;11.65;;;16.80;99.90;;;;;;4964121;28;20043;-51
2023/09/08 04:26:53;;;;;;;12.80;11.50;;;16.80;99.90;;;;;;4963783;28;20097;-52
2023/09/08 04:29:19;;;;;;;17.70;13.13;;;16.80;99.90;;;;;;4964374;28;20039;-51
2023/09/08 04:31:45;;;;;;;13.70;11.93;;;16.80;99.90;;;;;;4964462;28;20039;-50
2023/09/08 04:34:11;;;;;;;16.25;12.18;;;16.80;99.90;;;;;;4963462;28;20045;-52
2023/09/08 04:36:37;;;;;;;14.00;12.48;;;16.70;99.90;;;;;;4964841;28;20684;-52
2023/09/08 04:39:02;;;;;;;13.07;11.30;;;16.70;99.90;;;;;;4962311;28;20140;-52
2023/09/08 04:41:28;;;;;;;13.68;11.60;;;16.70;99.90;;;;;;4963736;28;20489;-52
2023/09/08 04:43:55;;;;;;;13.13;11.73;;;16.70;99.90;;;;;;4963268;28;20126;-50
2023/09/08 04:46:20;;;;;;;14.90;12.93;;;16.70;99.90;;;;;;4963910;28;20063;-54
2023/09/08 04:48:46;;;;;;;13.35;11.93;;;16.70;99.90;;;;;;4964355;28;20046;-50
2023/09/08 04:51:12;;;;;;;13.98;12.52;;;16.70;99.90;;;;;;4964073;28;20063;-51
2023/09/08 04:53:37;;;;;;;14.88;13.38;;;16.60;99.90;;;;;;4962703;28;20093;-52
2023/09/08 04:56:03;;;;;;;16.30;13.52;;;16.60;99.90;;;;;;4968740;28;20048;-53
2023/09/08 04:58:29;;;;;;;14.88;13.30;;;16.50;99.90;;;;;;4967694;28;20163;-52
2023/09/08 05:00:55;;;;;;;15.02;13.32;;;16.40;99.90;;;;;;4963379;28;20116;-51
2023/09/08 05:03:20;;;;;;;15.75;13.95;;;16.30;99.90;;;;;;4964056;28;20532;-53
2023/09/08 05:05:46;;;;;;;15.80;13.18;;;16.30;99.90;;;;;;4963258;28;20122;-53
2023/09/08 05:08:12;;;;;;;15.00;13.50;;;16.30;99.90;;;;;;4964132;28;20058;-51
2023/09/08 05:10:37;;;;;;;16.60;14.90;;;16.30;99.90;;;;;;4984688;28;20469;-50
2023/09/08 05:13:03;;;;;;;14.93;13.43;;;16.30;99.90;;;;;;5002362;28;20073;-51
2023/09/08 05:15:30;;;;;;;18.10;13.68;;;16.30;99.90;;;;;;5002333;28;20369;-52
2023/09/08 05:17:56;;;;;;;15.40;13.75;;;16.30;99.90;;;;;;5004586;28;20064;-50
2023/09/08 05:20:21;;;;;;;17.52;14.38;;;16.30;99.90;;;;;;5005217;28;20037;-50
2023/09/08 05:22:47;;;;;;;15.23;13.55;;;16.30;99.90;;;;;;4991843;28;20038;-49
2023/09/08 05:25:13;;;;;;;19.08;14.00;;;16.20;99.90;;;;;;4984750;28;20611;-52
2023/09/08 05:27:38;;;;;;;16.52;14.48;;;16.20;99.90;;;;;;4985924;28;20066;-50
2023/09/08 05:30:04;;;;;;;15.57;14.05;;;16.20;99.90;;;;;;4985191;28;20559;-53
2023/09/08 05:32:30;;;;;;;17.77;15.55;;;16.20;99.90;;;;;;4984138;28;20129;-52
2023/09/08 05:34:56;;;;;;;15.50;14.00;;;16.30;99.90;;;;;;4983667;28;20133;-53
2023/09/08 05:37:21;;;;;;;17.98;15.35;;;16.30;99.90;;;;;;4984780;28;20523;-50
2023/09/08 05:39:47;;;;;;;18.80;14.80;;;16.30;99.90;;;;;;4999501;28;20041;-53
2023/09/08 05:42:12;;;;;;;21.02;14.40;;;16.30;99.90;;;;;;5006059;28;20125;-52
2023/09/08 05:44:39;;;;;;;15.68;14.10;;;16.30;99.90;;;;;;5005269;28;20046;-51
2023/09/08 05:47:05;;;;;;;16.02;14.10;;;16.40;99.90;;;;;;5006165;28;20081;-51
2023/09/08 05:49:30;;;;;;;15.85;13.93;;;16.50;99.90;;;;;;5005834;28;20151;-52
2023/09/08 05:51:56;;;;;;;15.75;14.02;;;16.60;99.90;;;;;;5005769;28;20128;-51
2023/09/08 05:54:21;;;;;;;16.95;14.48;;;16.60;99.90;;;;;;5004661;28;20034;-50
2023/09/08 05:56:47;;;;;;;16.52;14.93;;;16.70;99.90;;;;;;4979711;28;20050;-50
2023/09/08 05:59:13;;;;;;;15.48;13.93;;;16.80;99.90;;;;;;4966691;28;20073;-54
2023/09/08 06:01:38;;;;;;;16.90;14.10;;;16.80;99.90;;;;;;4966434;28;20145;-51
2023/09/08 06:04:04;;;;;;;17.73;14.05;;;16.90;99.90;;;;;;4966683;28;21009;-51
2023/09/08 06:06:30;;;;;;;16.27;14.68;;;17.00;99.90;;;;;;4966780;28;20086;-50
2023/09/08 06:08:55;;;;;;;16.75;13.77;;;17.10;99.90;;;;;;4965617;28;20038;-51
2023/09/08 06:11:21;;;;;;;16.85;13.07;;;17.10;99.90;;;;;;4965642;28;20133;-51
2023/09/08 06:13:47;;;;;;;15.60;12.98;;;17.30;99.90;;;;;;4966093;28;20055;-51
2023/09/08 06:16:13;;;;;;;14.77;12.73;;;17.50;99.90;;;;;;4966758;28;20134;-51
2023/09/08 06:18:41;;;;;;;14.68;13.07;;;17.70;99.90;;;;;;4966331;28;20050;-53
2023/09/08 06:21:07;;;;;;;13.77;12.35;;;17.90;99.90;;;;;;4966397;28;20061;-54
2023/09/08 06:23:36;;;;;;;14.23;12.70;;;17.90;99.90;;;;;;4966374;28;20043;-57
2023/09/08 06:26:01;;;;;;;16.52;13.00;;;17.90;99.90;;;;;;4964445;28;20039;-51
2023/09/08 06:28:28;;;;;;;14.57;12.88;;;17.90;99.90;;;;;;4974741;28;20103;-53
2023/09/08 06:30:54;;;;;;;17.70;13.07;;;17.90;99.90;;;;;;4993586;28;20046;-53
2023/09/08 06:33:20;;;;;;;13.80;12.02;;;18.00;99.90;;;;;;4996891;28;20115;-49
2023/09/08 06:35:47;;;;;;;14.50;12.52;;;18.20;99.90;;;;;;5003459;28;20049;-53
2023/09/08 06:38:12;;;;;;;15.38;12.18;;;18.70;99.90;;;;;;4986234;28;20913;-49
2023/09/08 06:40:38;;;;;;;13.40;12.00;;;19.50;99.90;;;;;;4999898;28;20054;-51
2023/09/08 06:43:04;;;;;;;13.48;11.82;;;20.20;99.90;;;;;;4991056;28;20054;-52
2023/09/08 06:45:29;;;;;;;11.82;10.55;;;21.00;99.90;;;;;;4985045;28;20262;-50
2023/09/08 06:47:55;;;;;;;13.45;10.63;;;21.40;99.90;;;;;;4985424;28;20049;-46
2023/09/08 06:50:22;;;;;;;11.70;10.35;;;21.70;99.90;;;;;;4984406;28;20116;-49
2023/09/08 06:52:48;;;;;;;14.35;10.95;;;22.00;99.90;;;;;;4984471;28;20046;-48
2023/09/08 06:55:16;;;;;;;13.18;10.50;;;22.30;99.90;;;;;;4980723;28;20139;-48
2023/09/08 06:57:45;;;;;;;13.05;10.02;;;22.30;99.60;;;;;;4974767;28;20051;-49
2023/09/08 07:00:11;;;;;;;12.88;10.27;;;22.40;99.50;;;;;;4965731;28;20405;-50
2023/09/08 07:02:38;;;;;;;15.82;10.73;;;22.70;99.10;;;;;;4992142;28;20057;-49
2023/09/08 07:05:08;;;;;;;13.77;10.68;;;22.90;98.50;;;;;;5004273;28;20403;-48
2023/09/08 07:07:37;;;;;;;12.80;10.63;;;22.90;98.20;;;;;;5003894;28;20673;-51
2023/09/08 07:10:04;;;;;;;16.05;10.52;;;23.10;98.20;;;;;;5002681;28;20250;-50
2023/09/08 07:12:29;;;;;;;12.48;10.00;;;23.40;97.90;;;;;;4991467;28;20592;-48
2023/09/08 07:14:55;;;;;;;10.63;9.52;;;23.70;97.40;;;;;;4984515;28;20082;-48
2023/09/08 07:17:23;;;;;;;14.40;10.30;;;23.90;96.80;;;;;;4983816;28;20054;-50
2023/09/08 07:19:51;;;;;;;12.70;10.63;;;23.90;96.60;;;;;;4984057;28;20042;-49
2023/09/08 07:22:17;;;;;;;18.45;10.25;;;23.80;96.80;;;;;;4983530;28;20051;-53
2023/09/08 07:24:44;;;;;;;11.32;10.18;;;23.70;97.00;;;;;;4983754;28;20038;-46
2023/09/08 07:27:10;;;;;;;14.75;10.18;;;23.50;97.20;;;;;;4983964;28;20153;-47
2023/09/08 07:29:35;;;;;;;13.98;9.50;;;23.40;97.30;;;;;;4989632;28;20747;-48
2023/09/08 07:32:01;;;;;;;13.45;10.13;;;23.40;97.30;;;;;;4992482;28;20500;-47
2023/09/08 07:34:26;;;;;;;12.38;10.10;;;23.80;97.10;;;;;;4988243;28;20038;-48
2023/09/08 07:36:52;;;;;;;13.75;10.15;;;23.90;97.00;;;;;;5002844;28;20131;-47
2023/09/08 07:39:18;;;;;;;12.57;9.30;;;24.10;96.80;;;;;;5002501;28;20050;-50
2023/09/08 07:41:43;;;;;;;12.23;9.48;;;24.40;96.50;;;;;;5003758;28;20963;-48
2023/09/08 07:44:10;;;;;;;12.10;9.95;;;24.70;96.20;;;;;;4985156;28;20053;-48
2023/09/08 07:46:35;;;;;;;15.30;10.32;;;24.70;96.10;;;;;;4983804;28;20074;-48
2023/09/08 07:49:01;;;;;;;11.50;9.48;;;24.40;96.60;;;;;;4983354;28;20047;-46
2023/09/08 07:51:27;;;;;;;15.10;9.13;;;23.90;97.40;;;;;;4983591;28;20048;-48
2023/09/08 07:53:53;;;;;;;14.32;9.63;;;23.30;98.30;;;;;;4982285;28;20068;-48
2023/09/08 07:56:19;;;;;;;12.10;9.10;;;22.80;99.30;;;;;;4976749;28;20038;-47
2023/09/08 07:58:45;;;;;;;12.20;8.75;;;22.40;99.90;;;;;;4966587;28;20145;-47
2023/09/08 08:01:13;;;;;;;12.15;9.38;;;22.10;99.90;;;;;;4962852;28;20093;-47
2023/09/08 08:03:38;;;;;;;10.10;9.02;;;22.00;99.90;;;;;;4964249;28;20137;-47
2023/09/08 08:06:05;;;;;;;12.35;9.10;;;22.00;99.90;;;;;;4963559;28;20142;-47
2023/09/08 08:08:31;;;;;;;11.60;8.43;;;22.00;99.90;;;;;;4963513;28;20093;-48
2023/09/08 08:10:57;;;;;;;11.23;8.13;;;22.00;99.90;;;;;;4963448;28;20039;-47
2023/09/08 08:13:23;;;;;;;12.02;7.95;;;22.10;99.90;;;;;;4964027;28;20061;-48
2023/09/08 08:15:49;;;;;;;9.75;7.95;;;22.20;99.90;;;;;;4963125;28;20054;-47
2023/09/08 08:18:15;;;;;;;9.93;8.45;;;22.30;99.90;;;;;;4963517;28;20078;-49
2023/09/08 08:20:41;;;;;;;12.43;9.98;;;22.40;99.90;;;;;;4983803;28;20050;-51
2023/09/08 08:23:07;;;;;;;10.02;8.32;;;22.50;99.90;;;;;;4983045;28;20085;-49
2023/09/08 08:25:33;;;;;;;14.57;10.18;;;22.60;99.90;;;;;;4993167;28;20137;-49
2023/09/08 08:28:00;;;;;;;10.85;8.40;;;22.60;99.90;;;;;;4982917;28;20046;-48
2023/09/08 08:30:27;;;;;;;9.85;8.50;;;22.70;99.90;;;;;;4983341;28;20046;-47
2023/09/08 08:32:53;;;;;;;12.70;8.20;;;22.90;99.90;;;;;;4983547;28;20042;-47
2023/09/08 08:35:19;;;;;;;11.88;7.90;;;23.10;99.90;;;;;;4983318;28;20053;-47
2023/09/08 08:37:45;;;;;;;9.82;8.20;;;23.10;99.90;;;;;;4983896;28;20050;-48
2023/09/08 08:40:12;;;;;;;9.30;7.82;;;23.10;99.90;;;;;;4981505;28;20039;-47
2023/09/08 08:42:38;;;;;;;8.88;7.75;;;23.30;99.80;;;;;;4982463;28;20055;-48
2023/09/08 08:45:04;;;;;;;10.88;7.18;;;23.30;99.60;;;;;;4983110;28;20042;-47
2023/09/08 08:47:30;;;;;;;8.90;7.07;;;23.50;99.70;;;;;;4983195;28;20054;-48
2023/09/08 08:50:00;;;;;;;10.57;7.10;;;23.60;99.60;;;;;;4984341;28;20461;-47
2023/09/08 08:52:26;;;;;;;12.80;7.53;;;23.70;99.70;;;;;;4985495;28;20076;-49
2023/09/08 08:54:52;;;;;;;10.02;6.40;;;23.90;99.30;;;;;;4975643;28;20039;-50
2023/09/08 08:57:19;;;;;;;8.30;5.97;;;24.20;99.00;;;;;;4974207;28;20042;-48
2023/09/08 08:59:46;;;;;;;9.90;7.18;;;24.90;98.20;;;;;;4974631;28;20076;-48
2023/09/08 09:02:12;;;;;;;9.90;6.63;;;25.40;97.10;;;;;;4975562;28;20884;-47
2023/09/08 09:04:38;;;;;;;11.23;6.85;;;25.90;96.70;;;;;;4974573;28;20054;-47
2023/09/08 09:07:06;;;;;;;9.25;6.63;;;26.30;96.20;;;;;;4976714;28;20105;-48
2023/09/08 09:09:32;;;;;;;7.15;5.88;;;26.40;95.60;;;;;;4976274;28;20041;-47
2023/09/08 09:11:58;;;;;;;12.90;6.80;;;26.70;95.40;;;;;;4974213;28;20461;-53
2023/09/08 09:14:23;;;;;;;11.65;6.50;;;26.80;95.00;;;;;;4976856;28;20046;-53
2023/09/08 09:16:49;;;;;;;6.90;6.20;;;26.80;95.00;;;;;;4982282;28;20043;-50
2023/09/08 09:19:27;;;;;;;7.22;6.45;;;26.80;94.90;;;;;;4975664;28;20042;-54
2023/09/08 09:21:57;;;;;;;9.48;6.07;;;26.80;94.50;;;;;;4976625;28;20050;-52
2023/09/08 09:24:36;;;;;;;7.55;5.80;;;26.90;94.90;;;;;;4974261;28;20324;-57
2023/09/08 09:27:06;;;;;;;8.15;5.90;;;27.00;95.00;;;;;;4976215;28;20054;-55
2023/09/08 09:29:33;;;;;;;12.35;5.85;;;27.20;94.40;;;;;;4975062;28;20039;-52
2023/09/08 09:32:05;;;;;;;9.57;5.88;;;27.40;94.80;;;;;;4973128;28;20043;-54
2023/09/08 09:34:31;;;;;;;6.95;5.68;;;27.50;93.80;;;;;;4955923;28;20086;-53
2023/09/08 09:36:57;;;;;;;10.65;6.07;;;27.50;94.10;;;;;;4976530;28;20045;-55
2023/09/08 09:39:24;;;;;;;9.30;6.22;;;27.40;93.70;;;;;;4974139;28;20035;-52
2023/09/08 09:41:55;;;;;;;8.30;5.90;;;27.50;94.20;;;;;;4973272;28;20038;-55
2023/09/08 09:44:21;;;;;;;7.95;5.80;;;27.50;94.00;;;;;;4974799;28;20083;-53
2023/09/08 09:46:48;;;;;;;11.05;6.13;;;27.60;93.90;;;;;;4970569;28;20057;-55
2023/09/08 09:49:16;;;;;;;8.13;5.90;;;27.60;93.20;;;;;;4970566;28;20137;-54
2023/09/08 09:51:47;;;;;;;6.22;5.35;;;27.60;93.10;;;;;;4973279;28;20129;-52
2023/09/08 09:54:13;;;;;;;9.05;5.72;;;27.60;92.90;;;;;;4973592;28;20297;-54
2023/09/08 09:56:40;;;;;;;6.95;5.90;;;27.70;93.00;;;;;;4972912;28;20030;-55
2023/09/08 09:59:10;;;;;;;7.90;5.53;;;27.80;92.90;;;;;;4960692;28;20083;-53
2023/09/08 10:01:37;;;;;;;9.35;5.28;;;27.90;92.60;;;;;;4975950;28;20038;-53
2023/09/08 10:04:04;;;;;;;11.20;5.70;;;28.00;93.10;;;;;;4975470;28;20046;-52
2023/09/08 10:06:35;;;;;;;7.88;5.30;;;28.10;93.10;;;;;;4971374;28;20053;-53
2023/09/08 10:09:04;;;;;;;9.63;5.78;;;28.10;92.90;;;;;;4972081;28;20046;-53
2023/09/08 10:11:36;;;;;;;9.93;6.05;;;28.30;93.30;;;;;;4971531;28;20098;-53
2023/09/08 10:14:02;;;;;;;12.27;5.43;;;28.60;92.90;;;;;;4972967;28;20436;-53
2023/09/08 10:16:30;;;;;;;9.02;5.43;;;28.80;93.00;;;;;;4972096;28;20042;-53
2023/09/08 10:18:59;;;;;;;8.45;5.78;;;28.90;92.50;;;;;;4972228;28;20088;-52
2023/09/08 10:21:26;;;;;;;6.63;5.30;;;28.90;92.20;;;;;;4971478;28;20076;-54
2023/09/08 10:24:22;;;;;;;8.35;5.85;;;29.00;92.10;;;;;;4971680;28;20043;-52
2023/09/08 10:27:03;;;;;;;8.52;5.50;;;28.90;92.10;;;;;;4966972;28;20062;-53
2023/09/08 10:29:31;;;;;;;7.00;5.40;;;29.10;92.00;;;;;;4972258;28;20084;-52
2023/09/08 10:31:58;;;;;;;6.80;5.35;;;29.20;92.00;;;;;;4972114;28;20323;-52
2023/09/08 10:34:25;;;;;;;6.90;5.18;;;29.20;91.10;;;;;;4971424;28;20046;-55
2023/09/08 10:36:51;;;;;;;9.32;5.35;;;29.30;91.20;;;;;;4972233;28;20045;-53
2023/09/08 10:39:30;;;;;;;9.57;5.47;;;29.30;91.20;;;;;;4970451;28;20042;-54
2023/09/08 10:42:21;;;;;;;5.47;4.95;;;29.30;90.90;;;;;;4972780;28;20046;-53
2023/09/08 10:44:49;;;;;;;7.90;5.07;;;29.40;90.70;;;;;;4971540;28;20053;-53
2023/09/08 10:47:54;;;;;;;7.15;4.85;;;29.40;89.70;;;;;;4973986;28;20035;-52
2023/09/08 10:50:25;;;;;;;9.15;5.30;;;29.30;89.80;;;;;;4969931;28;20190;-54
2023/09/08 10:53:12;;;;;;;7.97;4.97;;;29.30;89.90;;;;;;4971803;28;20039;-52
2023/09/08 10:55:51;;;;;;;9.05;5.20;;;29.30;90.20;;;;;;4972706;28;20047;-53
2023/09/08 10:58:40;;;;;;;8.38;5.10;;;29.30;90.30;;;;;;4972740;28;20096;-53
2023/09/08 11:01:07;;;;;;;7.07;4.97;;;29.50;90.20;;;;;;4972150;28;20054;-53
2023/09/08 11:03:39;;;;;;;7.00;4.82;;;29.50;89.20;;;;;;4971659;28;20372;-53
2023/09/08 11:06:09;;;;;;;5.35;4.85;;;29.60;89.30;;;;;;4970739;28;20586;-50
2023/09/08 11:08:43;;;;;;;8.50;5.30;;;29.60;89.50;;;;;;4971409;28;20038;-53
2023/09/08 11:11:13;;;;;;;7.85;5.60;;;29.70;89.90;;;;;;4971024;28;20043;-51
2023/09/08 11:13:39;;;;;;;8.13;4.85;;;29.60;90.00;;;;;;4970725;28;20051;-52
2023/09/08 11:16:06;;;;;;;7.15;5.30;;;29.70;90.20;;;;;;4972188;28;20101;-56
2023/09/08 11:18:36;;;;;;;10.30;5.35;;;29.80;88.70;;;;;;4969890;28;20070;-53
2023/09/08 11:21:02;;;;;;;10.38;5.57;;;29.90;89.20;;;;;;4969928;28;20039;-54
2023/09/08 11:23:28;;;;;;;8.57;4.97;;;29.80;89.00;;;;;;4970905;28;20181;-53
2023/09/08 11:25:54;;;;;;;5.82;5.20;;;29.90;89.30;;;;;;4971554;28;20050;-52
2023/09/08 11:28:24;;;;;;;6.10;4.38;;;30.00;89.70;;;;;;4970098;28;20054;-53
2023/09/08 11:30:50;;;;;;;10.82;4.65;;;30.30;89.30;;;;;;4970869;28;20054;-53
2023/09/08 11:33:17;;;;;;;9.35;5.18;;;30.40;87.80;;;;;;4972386;28;20039;-54
2023/09/08 11:35:46;;;;;;;6.82;4.72;;;30.40;88.30;;;;;;4970855;28;20053;-53
2023/09/08 11:38:12;;;;;;;6.93;5.00;;;30.40;88.10;;;;;;4969809;28;20042;-52
2023/09/08 11:40:38;;;;;;;6.97;5.10;;;30.30;88.20;;;;;;4970908;28;20046;-51
2023/09/08 11:43:05;;;;;;;6.75;4.88;;;30.30;87.50;;;;;;4969248;28;20049;-53
2023/09/08 11:45:33;;;;;;;7.80;5.00;;;30.20;88.60;;;;;;4969404;28;20472;-52
2023/09/08 11:47:59;;;;;;;6.57;4.88;;;30.30;88.50;;;;;;4971859;28;20039;-52
2023/09/08 11:50:25;;;;;;;5.70;4.45;;;30.30;87.90;;;;;;4970383;28;20030;-54
2023/09/08 11:52:52;;;;;;;6.38;4.82;;;30.50;87.80;;;;;;4969811;28;20130;-53
2023/09/08 11:55:19;;;;;;;6.80;4.85;;;30.60;86.70;;;;;;4970799;28;20030;-53
2023/09/08 11:57:57;;;;;;;10.63;5.03;;;30.60;86.70;;;;;;4970267;28;20050;-52
2023/09/08 12:00:23;;;;;;;6.50;4.60;;;30.70;87.80;;;;;;4968704;28;20043;-53
2023/09/08 12:02:50;;;;;;;5.35;4.68;;;30.70;86.50;;;;;;4969257;28;20505;-52
2023/09/08 12:05:26;;;;;;;7.28;4.93;;;30.80;87.00;;;;;;4970493;28;20042;-53
2023/09/08 12:07:54;;;;;;;9.68;5.22;;;30.80;87.10;;;;;;4969213;28;20047;-53
2023/09/08 12:10:21;;;;;;;5.10;4.53;;;30.70;86.10;;;;;;4970968;28;20130;-52
2023/09/08 12:12:49;;;;;;;7.88;5.15;;;30.70;86.40;;;;;;4970932;28;20082;-53
2023/09/08 12:15:32;;;;;;;5.68;4.80;;;30.70;86.50;;;;;;4970912;28;20082;-52
2023/09/08 12:17:58;;;;;;;6.82;4.88;;;30.70;86.30;;;;;;4972206;28;20054;-52
2023/09/08 12:20:24;;;;;;;6.40;5.40;;;30.70;87.20;;;;;;4970823;28;20056;-53
2023/09/08 12:22:50;;;;;;;8.05;4.60;;;30.60;87.20;;;;;;4969720;28;20042;-51
2023/09/08 12:25:17;;;;;;;6.07;4.82;;;30.70;86.80;;;;;;4974898;28;20104;-54
2023/09/08 12:27:42;;;;;;;7.80;4.57;;;30.70;87.20;;;;;;4974935;28;20097;-53
2023/09/08 12:30:09;;;;;;;9.45;4.72;;;30.80;86.60;;;;;;4974293;28;20046;-54
2023/09/08 12:32:36;;;;;;;6.97;4.57;;;30.90;86.40;;;;;;4974604;28;20043;-53
2023/09/08 12:35:04;;;;;;;6.38;5.00;;;31.00;85.30;;;;;;4973778;28;20105;-54